Time;durP1;ratioP1;P1;durP2;ratioP2;P2;SDS_P1;SDS_P2;PMS_P1;PMS_P2;Temp;Humidity;BMP_temperature;BMP_pressure;BME280_temperature;BME280_humidity;BME280_pressure;Samples;Min_cycle;Max_cycle;Signal;HPM_P1;HPM_P2
2023/03/23 00:02:29;;;;;;;80.90;46.70;;;;;;;4.88;97.09;101076.59;109633;1241;70625;-72
2023/03/23 00:04:57;;;;;;;79.50;45.30;;;;;;;4.81;97.45;101076.19;109729;1241;74344;-71
2023/03/23 00:07:27;;;;;;;81.70;44.00;;;;;;;4.71;95.25;101077.13;109740;1241;57169;-71
2023/03/23 00:09:55;;;;;;;82.80;47.60;;;;;;;4.55;94.73;101076.58;109672;1241;61185;-71
2023/03/23 00:12:32;;;;;;;77.30;45.20;;;;;;;4.42;95.13;101072.66;109568;1241;63439;-71
2023/03/23 00:15:06;;;;;;;74.10;43.50;;;;;;;4.29;94.70;101070.79;109565;1241;61649;-72
2023/03/23 00:17:34;;;;;;;75.00;44.70;;;;;;;4.19;95.44;101068.60;109788;1241;69689;-71
2023/03/23 00:20:05;;;;;;;79.00;48.00;;;;;;;4.15;98.40;101067.03;109693;1241;63590;-71
2023/03/23 00:22:37;;;;;;;82.50;47.90;;;;;;;4.12;99.98;101064.56;109687;1243;57778;-71
2023/03/23 00:25:08;;;;;;;80.60;46.10;;;;;;;4.10;100.00;101062.92;109658;1241;61200;-72
2023/03/23 00:27:35;;;;;;;79.40;45.50;;;;;;;4.07;100.00;101061.48;109831;1241;63447;-72
2023/03/23 00:30:03;;;;;;;84.00;47.50;;;;;;;4.07;100.00;101060.79;109692;1241;60843;-71
2023/03/23 00:32:31;;;;;;;76.80;44.50;;;;;;;4.04;99.72;101060.93;109798;1241;59220;-71
2023/03/23 00:35:03;;;;;;;81.00;47.20;;;;;;;4.00;100.00;101063.83;109699;1241;74377;-71
2023/03/23 00:37:31;;;;;;;83.40;48.70;;;;;;;4.05;100.00;101066.55;109756;1242;57310;-73
2023/03/23 00:40:00;;;;;;;73.80;44.10;;;;;;;4.24;100.00;101062.34;109714;1241;57767;-72
2023/03/23 00:42:28;;;;;;;72.10;44.40;;;;;;;4.44;99.70;101059.80;109710;1241;62201;-72
2023/03/23 00:44:59;;;;;;;75.30;43.60;;;;;;;4.55;97.77;101058.14;109667;1241;72202;-72
2023/03/23 00:47:27;;;;;;;76.90;43.00;;;;;;;4.49;96.79;101051.82;109685;1241;59839;-72
2023/03/23 00:49:56;;;;;;;85.30;45.80;;;;;;;4.45;96.50;101052.86;109634;1241;73098;-72
2023/03/23 00:52:23;;;;;;;98.10;52.20;;;;;;;4.34;96.09;101049.36;109732;1242;57221;-72
2023/03/23 00:54:51;;;;;;;77.90;44.30;;;;;;;4.24;96.14;101049.58;109502;1241;57698;-71
2023/03/23 00:57:19;;;;;;;82.20;47.00;;;;;;;4.19;96.97;101048.76;109640;1241;73633;-72
2023/03/23 00:59:47;;;;;;;78.20;45.60;;;;;;;4.23;99.05;101045.30;109580;1241;72575;-71
2023/03/23 01:02:16;;;;;;;80.50;45.20;;;;;;;4.40;99.12;101046.17;109669;1241;60317;-71
2023/03/23 01:04:44;;;;;;;75.70;44.80;;;;;;;4.39;97.93;101047.23;109654;1241;72378;-72
2023/03/23 01:07:12;;;;;;;73.10;44.60;;;;;;;4.38;97.90;101046.23;110037;1240;63658;-72
2023/03/23 01:09:44;;;;;;;81.20;48.50;;;;;;;4.33;98.07;101045.78;110144;1238;57734;-73
2023/03/23 01:12:13;;;;;;;79.40;44.90;;;;;;;4.30;99.91;101042.99;109938;1238;72678;-73
2023/03/23 01:14:41;;;;;;;84.20;49.40;;;;;;;4.33;99.95;101044.23;110136;1237;62119;-72
2023/03/23 01:17:10;;;;;;;84.70;50.30;;;;;;;4.33;100.00;101045.45;110026;1238;60092;-73
2023/03/23 01:19:38;;;;;;;83.40;47.90;;;;;;;4.38;99.92;101045.23;110173;1237;63289;-72
2023/03/23 01:22:05;;;;;;;78.60;46.70;;;;;;;4.29;98.77;101045.25;109912;1241;62724;-71
2023/03/23 01:24:33;;;;;;;79.00;48.10;;;;;;;4.21;98.85;101041.09;110216;1238;57231;-72
2023/03/23 01:27:06;;;;;;;74.50;46.70;;;;;;;4.11;98.85;101032.38;110039;1238;73631;-71
2023/03/23 01:29:34;;;;;;;79.30;45.00;;;;;;;4.14;98.72;101037.60;110047;1237;72449;-70
2023/03/23 01:32:03;;;;;;;73.80;42.70;;;;;;;4.12;99.08;101033.52;110135;1237;60507;-71
2023/03/23 01:34:31;;;;;;;72.70;40.90;;;;;;;4.03;97.95;101035.61;109924;1237;73772;-70
2023/03/23 01:36:59;;;;;;;69.10;41.40;;;;;;;3.92;98.59;101035.36;109992;1241;61989;-71
2023/03/23 01:39:27;;;;;;;70.30;41.50;;;;;;;3.89;98.90;101034.98;109912;1238;61678;-71
2023/03/23 01:41:54;;;;;;;72.50;41.60;;;;;;;3.82;98.58;101037.45;110064;1237;64472;-71
2023/03/23 01:44:23;;;;;;;79.00;44.70;;;;;;;3.69;99.23;101037.98;109947;1238;60963;-72
2023/03/23 01:47:05;;;;;;;74.60;42.90;;;;;;;3.87;100.00;101035.57;109938;1237;69723;-72
2023/03/23 01:49:41;;;;;;;80.40;43.40;;;;;;;3.99;100.00;101040.09;109973;1238;74981;-71
2023/03/23 01:52:26;;;;;;;75.20;43.90;;;;;;;3.96;99.23;101036.41;109933;1239;57185;-71
2023/03/23 01:55:00;;;;;;;72.00;43.90;;;;;;;3.86;98.06;101035.26;109962;1238;57126;-71
2023/03/23 01:57:29;;;;;;;84.60;46.10;;;;;;;3.78;97.58;101039.18;110074;1237;73553;-71
2023/03/23 02:00:22;;;;;;;87.50;48.20;;;;;;;3.76;98.63;101040.46;110067;1237;63081;-71
2023/03/23 02:02:54;;;;;;;79.10;45.20;;;;;;;3.85;99.63;101042.35;109808;1237;60067;-72
2023/03/23 02:05:38;;;;;;;78.60;46.50;;;;;;;3.95;99.26;101034.70;109746;1241;63369;-71
2023/03/23 02:08:14;;;;;;;82.70;46.10;;;;;;;4.23;98.37;101037.90;109814;1238;62025;-71
2023/03/23 02:10:43;;;;;;;79.40;44.80;;;;;;;4.24;96.28;101032.54;109941;1238;60765;-72
2023/03/23 02:13:12;;;;;;;80.70;45.50;;;;;;;4.41;96.53;101037.34;109908;1239;63201;-71
2023/03/23 02:16:14;;;;;;;73.00;44.50;;;;;;;4.54;95.86;101038.52;109732;1238;61274;-71
2023/03/23 02:19:07;;;;;;;76.80;45.00;;;;;;;4.57;94.41;101039.06;109876;1238;69550;-72
2023/03/23 02:22:04;;;;;;;76.50;44.60;;;;;;;4.34;93.65;101036.75;109640;1241;74294;-72
2023/03/23 02:24:52;;;;;;;70.50;42.10;;;;;;;4.35;94.70;101033.77;109621;1241;57829;-72
2023/03/23 02:27:38;;;;;;;71.20;42.40;;;;;;;4.23;93.73;101031.34;109724;1238;57671;-71
2023/03/23 02:30:41;;;;;;;78.70;44.40;;;;;;;4.10;94.59;101032.76;109832;1238;73532;-70
2023/03/23 02:33:40;;;;;;;76.10;44.50;;;;;;;3.99;94.89;101029.22;109754;1238;62023;-71
2023/03/23 02:36:21;;;;;;;74.00;43.40;;;;;;;3.80;93.87;101028.95;109733;1238;70570;-71
2023/03/23 02:38:53;;;;;;;71.80;42.20;;;;;;;3.64;95.02;101032.84;109593;1238;73350;-71
2023/03/23 02:41:28;;;;;;;72.70;42.40;;;;;;;3.50;95.82;101031.14;109717;1238;62594;-73
2023/03/23 02:43:57;;;;;;;73.60;43.70;;;;;;;3.40;96.47;101030.63;109576;1238;58364;-71
2023/03/23 02:46:26;;;;;;;73.80;44.50;;;;;;;3.34;96.90;101033.28;109619;1238;65269;-72
2023/03/23 02:48:57;;;;;;;75.60;44.20;;;;;;;3.28;97.45;101033.34;109559;1238;71473;-71
2023/03/23 02:51:27;;;;;;;77.80;44.40;;;;;;;3.20;98.41;101029.14;109722;1242;70157;-71
2023/03/23 02:53:56;;;;;;;73.20;42.40;;;;;;;3.24;99.16;101033.83;109714;1238;73744;-72
2023/03/23 02:56:28;;;;;;;79.90;46.10;;;;;;;3.24;98.90;101033.14;109617;1241;57751;-72
2023/03/23 02:58:56;;;;;;;82.30;44.50;;;;;;;3.20;98.35;101034.65;109714;1238;58199;-73
2023/03/23 03:01:33;;;;;;;87.30;48.00;;;;;;;3.16;98.60;101036.52;109752;1238;64846;-71
2023/03/23 03:04:16;;;;;;;75.00;43.70;;;;;;;3.13;99.87;101038.51;109854;1238;71370;-71
2023/03/23 03:07:21;;;;;;;80.60;45.60;;;;;;;3.10;99.69;101038.98;109659;1238;60959;-72
2023/03/23 03:09:58;;;;;;;76.40;45.00;;;;;;;3.06;99.94;101041.88;109854;1238;63269;-72
2023/03/23 03:12:57;;;;;;;76.50;44.40;;;;;;;3.04;100.00;101040.91;109740;1242;62100;-73
2023/03/23 03:15:36;;;;;;;77.10;43.20;;;;;;;3.03;100.00;101041.98;109810;1238;58335;-74
2023/03/23 03:18:16;;;;;;;74.90;43.90;;;;;;;3.07;100.00;101040.64;109622;1244;62998;-72
2023/03/23 03:21:02;;;;;;;81.00;44.50;;;;;;;3.02;100.00;101041.68;109860;1238;72064;-72
2023/03/23 03:23:34;;;;;;;76.30;44.40;;;;;;;2.99;100.00;101042.98;109836;1241;60291;-70
2023/03/23 03:26:05;;;;;;;77.60;44.00;;;;;;;2.98;100.00;101045.27;109663;1242;71635;-72
2023/03/23 03:28:48;;;;;;;69.80;40.00;;;;;;;3.12;100.00;101055.44;109933;1241;62062;-71
2023/03/23 03:31:27;;;;;;;54.90;30.20;;;;;;;3.01;99.35;101057.89;109683;1238;57902;-72
2023/03/23 03:33:56;;;;;;;72.30;40.60;;;;;;;2.85;98.79;101059.65;109741;1238;64342;-72
2023/03/23 03:36:34;;;;;;;79.40;46.20;;;;;;;2.70;99.56;101058.61;109656;1238;71461;-72
2023/03/23 03:39:07;;;;;;;77.90;43.20;;;;;;;2.73;100.00;101060.24;109677;1238;60658;-72
2023/03/23 03:41:36;;;;;;;79.80;43.50;;;;;;;2.68;100.00;101061.59;109886;1238;72224;-72
2023/03/23 03:44:06;;;;;;;76.40;43.20;;;;;;;2.66;99.96;101062.73;109657;1243;61367;-72
2023/03/23 03:46:36;;;;;;;76.90;43.70;;;;;;;2.88;100.00;101063.15;109869;1238;61713;-73
2023/03/23 03:49:08;;;;;;;73.90;45.40;;;;;;;2.79;99.95;101062.95;109793;1242;63475;-72
2023/03/23 03:51:36;;;;;;;78.90;47.40;;;;;;;2.73;100.00;101061.61;109749;1238;72112;-72
2023/03/23 03:54:05;;;;;;;79.10;46.40;;;;;;;2.77;100.00;101060.42;109903;1238;70975;-72
2023/03/23 03:56:35;;;;;;;83.30;46.00;;;;;;;3.13;100.00;101064.00;109741;1238;74240;-72
2023/03/23 03:59:52;;;;;;;72.90;43.20;;;;;;;3.32;99.46;101064.69;109543;1239;61528;-71
2023/03/23 04:03:03;;;;;;;77.10;45.50;;;;;;;3.25;97.34;101069.23;109984;1238;61160;-70
2023/03/23 04:05:45;;;;;;;73.50;42.40;;;;;;;3.14;97.43;101070.48;110048;1238;74932;-72
2023/03/23 04:08:13;;;;;;;77.50;42.60;;;;;;;3.04;97.26;101071.04;109832;1242;62011;-71
2023/03/23 04:10:41;;;;;;;74.90;44.50;;;;;;;3.01;98.46;101075.11;110020;1241;59250;-72
2023/03/23 04:13:09;;;;;;;73.50;41.80;;;;;;;3.17;99.07;101076.92;110106;1239;63292;-72
2023/03/23 04:16:00;;;;;;;79.20;45.70;;;;;;;3.30;98.25;101074.73;109811;1244;57843;-72
2023/03/23 04:18:29;;;;;;;73.80;41.40;;;;;;;3.23;96.90;101078.08;109826;1244;57817;-70
2023/03/23 04:20:58;;;;;;;71.70;41.30;;;;;;;3.39;97.50;101075.96;110110;1238;72549;-72
2023/03/23 04:23:31;;;;;;;72.20;43.10;;;;;;;3.40;96.41;101076.44;110021;1241;61468;-72
2023/03/23 04:26:03;;;;;;;73.60;42.20;;;;;;;3.41;95.77;101072.62;109900;1242;59197;-72
2023/03/23 04:28:35;;;;;;;69.80;41.80;;;;;;;3.39;95.68;101072.20;109990;1237;63732;-72
2023/03/23 04:31:25;;;;;;;77.20;41.40;;;;;;;3.41;95.80;101068.30;110020;1240;58303;-73
2023/03/23 04:33:56;;;;;;;77.00;41.90;;;;;;;3.36;95.15;101071.58;109982;1238;61186;-73
2023/03/23 04:36:25;;;;;;;74.20;40.80;;;;;;;3.39;95.99;101066.83;109797;1244;62983;-72
2023/03/23 04:39:06;;;;;;;73.80;41.40;;;;;;;3.57;96.02;101066.89;109779;1238;72184;-74
2023/03/23 04:41:35;;;;;;;72.90;43.60;;;;;;;3.73;95.60;101071.25;109970;1238;62036;-74
2023/03/23 04:44:17;;;;;;;79.70;43.30;;;;;;;3.76;93.99;101072.35;109941;1242;63775;-77
2023/03/23 04:46:49;;;;;;;96.80;54.70;;;;;;;3.67;93.59;101074.92;109871;1242;57823;-73
2023/03/23 04:49:20;;;;;;;88.30;51.90;;;;;;;3.56;94.39;101075.84;109932;1242;57729;-73
2023/03/23 04:51:50;;;;;;;83.40;47.50;;;;;;;3.52;95.24;101077.05;110003;1238;74336;-78
2023/03/23 04:54:37;;;;;;;90.80;48.70;;;;;;;3.48;95.80;101076.49;110028;1238;72759;-73
2023/03/23 04:57:08;;;;;;;84.10;48.70;;;;;;;3.53;96.68;101079.40;109785;1245;59851;-77
2023/03/23 04:59:36;;;;;;;90.40;53.90;;;;;;;3.67;96.94;101082.87;110001;1241;63274;-75
2023/03/23 05:02:17;;;;;;;98.70;55.50;;;;;;;3.77;96.60;101084.68;109903;1242;60808;-77
2023/03/23 05:04:48;;;;;;;94.10;54.90;;;;;;;3.80;96.44;101084.25;109965;1238;59174;-75
2023/03/23 05:07:19;;;;;;;101.20;58.50;;;;;;;3.88;96.67;101084.47;110115;1237;74299;-75
2023/03/23 05:09:49;;;;;;;94.50;53.60;;;;;;;3.96;96.53;101085.70;110133;1239;61257;-76
2023/03/23 05:12:19;;;;;;;92.90;50.90;;;;;;;4.12;96.37;101084.52;109924;1238;70315;-75
2023/03/23 05:14:54;;;;;;;95.40;55.20;;;;;;;4.37;95.54;101083.39;109943;1238;73926;-74
2023/03/23 05:17:23;;;;;;;95.70;54.30;;;;;;;4.44;94.40;101085.68;109820;1238;62767;-78
2023/03/23 05:19:53;;;;;;;98.10;54.80;;;;;;;4.51;94.31;101087.13;109800;1238;61547;-72
2023/03/23 05:23:14;;;;;;;97.30;52.30;;;;;;;4.63;94.81;101088.89;109904;1241;64956;-74
2023/03/23 05:25:42;;;;;;;95.50;52.40;;;;;;;4.93;93.80;101090.52;109910;1238;72334;-72
2023/03/23 05:28:14;;;;;;;;;;;;;;;5.00;92.98;101090.05;110008;1238;69885;-77
2023/03/23 05:31:04;;;;;;;108.80;50.70;;;;;;;5.10;92.57;101090.84;109950;1239;74707;-75
2023/03/23 05:33:33;;;;;;;99.60;50.80;;;;;;;5.22;92.24;101091.15;109872;1242;58250;-76
2023/03/23 05:36:13;;;;;;;93.20;52.10;;;;;;;5.40;91.55;101093.64;109879;1241;61225;-74
2023/03/23 05:39:21;;;;;;;95.00;49.50;;;;;;;5.63;90.77;101086.20;109842;1238;74285;-76
2023/03/23 05:42:45;;;;;;;94.30;50.60;;;;;;;5.80;90.68;101091.83;109915;1241;71863;-77
2023/03/23 05:45:23;;;;;;;97.60;50.60;;;;;;;5.85;89.90;101096.63;109638;1242;58996;-76
2023/03/23 05:47:52;;;;;;;86.10;48.60;;;;;;;5.92;90.11;101094.05;110040;1237;74301;-78
2023/03/23 05:50:21;;;;;;;92.60;50.30;;;;;;;5.98;90.00;101098.44;109888;1238;61245;-77
2023/03/23 05:52:50;;;;;;;92.60;49.90;;;;;;;6.07;89.90;101100.27;110027;1241;58261;-74
2023/03/23 05:55:17;;;;;;;89.40;49.70;;;;;;;6.17;89.26;101109.33;109887;1237;74452;-76
2023/03/23 05:57:50;;;;;;;94.20;49.90;;;;;;;6.25;89.01;101104.23;109939;1238;72495;-74
2023/03/23 06:00:30;;;;;;;82.00;43.10;;;;;;;6.29;87.94;101103.52;109992;1238;70985;-78
2023/03/23 06:03:08;;;;;;;73.00;39.90;;;;;;;6.18;86.88;101108.25;109946;1238;73022;-75
2023/03/23 06:05:47;;;;;;;69.00;38.90;;;;;;;6.01;86.79;101109.56;110007;1239;61591;-75
2023/03/23 06:08:17;;;;;;;71.10;40.20;;;;;;;5.83;87.25;101112.41;110014;1237;60958;-76
2023/03/23 06:10:45;;;;;;;85.60;44.10;;;;;;;5.70;87.79;101109.39;110068;1238;64549;-76
2023/03/23 06:13:14;;;;;;;73.70;41.90;;;;;;;5.58;88.57;101107.69;109980;1239;72699;-77
2023/03/23 06:15:58;;;;;;;70.90;39.30;;;;;;;5.54;89.28;101111.30;109806;1242;61840;-80
2023/03/23 06:18:48;;;;;;;80.20;43.60;;;;;;;5.58;90.25;101115.31;109875;1241;74292;-78
2023/03/23 06:21:33;;;;;;;86.70;46.40;;;;;;;5.67;90.77;101110.95;109878;1238;61674;-78
2023/03/23 06:24:06;;;;;;;87.90;45.50;;;;;;;5.80;90.98;101112.41;109709;1238;61591;-78
2023/03/23 06:26:40;;;;;;;82.70;46.80;;;;;;;6.01;90.56;101114.37;109939;1238;74194;-80
2023/03/23 06:29:11;;;;;;;79.10;45.10;;;;;;;6.18;90.59;101117.55;109636;1242;61344;-76
2023/03/23 06:31:49;;;;;;;85.10;45.90;;;;;;;6.37;90.17;101116.11;109552;1245;60036;-74
2023/03/23 06:34:16;;;;;;;72.90;41.50;;;;;;;6.58;88.91;101114.39;109803;1242;64745;-78
2023/03/23 06:37:02;;;;;;;86.50;48.50;;;;;;;6.69;88.00;101118.21;109979;1241;57893;-79
2023/03/23 06:39:48;;;;;;;80.40;46.50;;;;;;;6.77;88.28;101120.89;109892;1238;58204;-78
2023/03/23 06:42:29;;;;;;;78.20;47.10;;;;;;;6.86;88.22;101121.48;110012;1238;63706;-77
2023/03/23 06:45:31;;;;;;;86.90;46.10;;;;;;;7.00;88.60;101123.55;109931;1238;72097;-75
2023/03/23 06:48:55;;;;;;;81.90;46.30;;;;;;;7.18;88.14;101123.66;109457;1244;60420;-77
2023/03/23 06:51:30;;;;;;;78.80;44.90;;;;;;;7.36;87.90;101127.10;109677;1238;73926;-77
2023/03/23 06:53:57;;;;;;;77.90;46.30;;;;;;;7.42;88.08;101125.55;109802;1241;57893;-75
2023/03/23 06:56:26;;;;;;;87.30;49.00;;;;;;;7.55;88.01;101126.05;109896;1238;60461;-78
2023/03/23 06:58:54;;;;;;;85.70;49.40;;;;;;;7.66;88.07;101123.74;109724;1238;64323;-77
2023/03/23 07:01:22;;;;;;;88.20;51.40;;;;;;;7.85;87.77;101124.97;109767;1238;61685;-78
2023/03/23 07:03:55;;;;;;;93.10;51.30;;;;;;;8.06;87.14;101125.37;109905;1239;69678;-78
2023/03/23 07:06:30;;;;;;;82.80;51.70;;;;;;;8.27;86.05;101126.99;109902;1241;62876;-79
2023/03/23 07:09:00;;;;;;;93.40;52.70;;;;;;;8.55;85.92;101123.70;109900;1241;60330;-79
2023/03/23 07:11:30;;;;;;;82.40;50.00;;;;;;;8.77;84.98;101122.58;109710;1238;61780;-76
2023/03/23 07:14:01;;;;;;;83.40;49.10;;;;;;;8.89;84.84;101119.30;109901;1238;74080;-77
2023/03/23 07:16:29;;;;;;;94.90;50.80;;;;;;;9.07;84.49;101120.83;109753;1238;72703;-77
2023/03/23 07:18:56;;;;;;;80.50;48.80;;;;;;;9.22;84.16;101121.16;109641;1238;60977;-82
2023/03/23 07:21:24;;;;;;;88.90;48.20;;;;;;;9.40;83.47;101122.67;109651;1238;73276;-77
2023/03/23 07:23:52;;;;;;;76.00;46.60;;;;;;;9.55;83.41;101119.48;109618;1244;58279;-79
2023/03/23 07:26:31;;;;;;;81.50;49.30;;;;;;;9.73;82.61;101121.36;109767;1238;57744;-77
2023/03/23 07:29:00;;;;;;;76.40;46.70;;;;;;;9.97;82.47;101124.50;109781;1238;74007;-80
2023/03/23 07:31:35;;;;;;;78.80;47.30;;;;;;;10.19;81.55;101122.23;109591;1240;460425;-78
2023/03/23 07:34:03;;;;;;;69.60;42.70;;;;;;;10.37;80.24;101121.84;109844;1238;60180;-80
2023/03/23 07:37:12;;;;;;;74.30;45.40;;;;;;;10.59;79.75;101121.45;109913;1238;63293;-76
2023/03/23 07:39:42;;;;;;;68.10;40.00;;;;;;;10.79;79.12;101117.48;109871;1242;60429;-77
2023/03/23 07:42:10;;;;;;;73.00;42.50;;;;;;;11.00;79.29;101115.90;109909;1238;58320;-79
2023/03/23 07:45:13;;;;;;;69.30;39.70;;;;;;;11.22;79.11;101116.64;109918;1238;63738;-77
2023/03/23 07:47:41;;;;;;;74.10;41.80;;;;;;;11.44;78.15;101117.23;109710;1238;71129;-77
2023/03/23 07:50:10;;;;;;;51.40;32.90;;;;;;;11.57;74.11;101113.51;109756;1238;59756;-76
2023/03/23 07:52:41;;;;;;;63.20;34.00;;;;;;;11.81;75.55;101112.70;109643;1240;63284;-78
2023/03/23 07:55:17;;;;;;;45.40;28.80;;;;;;;11.99;75.58;101104.64;109596;1240;60946;-77
2023/03/23 07:58:07;;;;;;;48.90;30.70;;;;;;;12.20;72.06;101111.15;109641;1238;61723;-78
2023/03/23 08:00:35;;;;;;;50.10;31.90;;;;;;;12.39;72.14;101109.41;109624;1238;74821;-77
2023/03/23 08:03:06;;;;;;;51.80;31.20;;;;;;;12.64;74.22;101111.07;109602;1238;64039;-76
2023/03/23 08:05:47;;;;;;;47.00;30.00;;;;;;;12.88;73.02;101105.75;109668;1238;60604;-78
2023/03/23 08:08:15;;;;;;;44.00;27.70;;;;;;;13.08;69.68;101101.95;109934;1238;73924;-81
2023/03/23 08:10:42;;;;;;;51.40;31.60;;;;;;;13.23;65.89;101098.90;109719;1241;58156;-79
2023/03/23 08:13:29;;;;;;;51.30;34.60;;;;;;;13.38;65.32;101098.64;109869;1238;58282;-78
2023/03/23 08:16:49;;;;;;;46.00;31.70;;;;;;;13.67;64.80;101094.10;109607;1238;75145;-76
2023/03/23 08:19:28;;;;;;;51.90;34.20;;;;;;;13.87;64.53;101091.05;109877;1238;61871;-78
2023/03/23 08:22:42;;;;;;;53.50;34.90;;;;;;;14.03;64.86;101092.43;109674;1238;60050;-77
2023/03/23 08:25:25;;;;;;;55.70;36.70;;;;;;;14.03;63.02;101093.27;109900;1238;63341;-76
2023/03/23 08:28:13;;;;;;;55.00;36.70;;;;;;;14.21;64.84;101096.17;110005;1240;61404;-76
2023/03/23 08:31:35;;;;;;;59.80;38.90;;;;;;;14.18;62.55;101100.29;109901;1238;57692;-76
2023/03/23 08:34:08;;;;;;;55.80;36.30;;;;;;;14.28;62.67;101099.82;110007;1238;63860;-76
2023/03/23 08:37:22;;;;;;;53.50;36.00;;;;;;;14.51;62.91;101102.33;109879;1238;62320;-74
2023/03/23 08:40:42;;;;;;;57.90;36.70;;;;;;;14.58;61.30;101097.16;109870;1238;59327;-77
2023/03/23 08:43:13;;;;;;;54.00;35.20;;;;;;;14.67;61.67;101097.02;109990;1238;62470;-76
2023/03/23 08:46:01;;;;;;;46.80;30.70;;;;;;;14.87;63.38;101096.02;109992;1238;57720;-76
2023/03/23 08:48:47;;;;;;;52.40;32.30;;;;;;;15.07;64.07;101091.69;109913;1238;57771;-77
2023/03/23 08:52:02;;;;;;;;;;;;;;;15.26;61.37;101090.36;110038;1238;63690;-78
2023/03/23 08:54:56;;;;;;;45.40;30.50;;;;;;;15.49;61.84;101091.59;110055;1238;60968;-77
2023/03/23 08:57:47;;;;;;;51.30;33.10;;;;;;;15.71;62.63;101083.34;109862;1238;70099;-77
2023/03/23 09:00:27;;;;;;;46.30;28.80;;;;;;;15.91;62.24;101086.82;110036;1241;63691;-77
2023/03/23 09:03:54;;;;;;;39.00;25.50;;;;;;;16.17;59.68;101081.52;110003;1240;60362;-78
2023/03/23 09:06:47;;;;;;;32.40;23.20;;;;;;;16.34;52.83;101077.67;109922;1238;60957;-80
2023/03/23 09:09:14;;;;;;;35.00;24.70;;;;;;;16.17;50.88;101075.19;109787;1238;74752;-77
2023/03/23 09:11:42;;;;;;;37.00;23.60;;;;;;;16.35;52.75;101071.98;110035;1241;61709;-78
2023/03/23 09:14:11;;;;;;;34.10;23.30;;;;;;;16.34;50.17;101067.15;109943;1238;70413;-78
2023/03/23 09:16:39;;;;;;;29.60;21.40;;;;;;;16.49;51.65;101058.60;110026;1238;62996;-78
2023/03/23 09:19:08;;;;;;;25.40;18.20;;;;;;;16.66;50.21;101059.80;110056;1240;57789;-75
2023/03/23 09:21:36;;;;;;;29.40;19.40;;;;;;;16.79;48.59;101057.21;109978;1242;58243;-78
2023/03/23 09:24:05;;;;;;;28.50;19.10;;;;;;;16.88;48.36;101056.77;109987;1238;74474;-78
2023/03/23 09:26:33;;;;;;;24.60;17.60;;;;;;;16.78;46.48;101058.39;110004;1242;70412;-79
2023/03/23 09:29:00;;;;;;;27.20;18.80;;;;;;;16.76;46.36;101051.48;109970;1238;70904;-78
2023/03/23 09:31:28;;;;;;;21.00;15.20;;;;;;;16.79;46.08;101045.79;110017;1238;63278;-75
2023/03/23 09:33:56;;;;;;;20.40;15.40;;;;;;;17.01;46.00;101041.65;109887;1241;60883;-79
2023/03/23 09:36:31;;;;;;;27.90;18.50;;;;;;;16.97;45.96;101036.21;109950;1238;58275;-78
2023/03/23 09:38:59;;;;;;;26.30;18.40;;;;;;;17.10;46.40;101031.27;109925;1238;73580;-78
2023/03/23 09:42:21;;;;;;;26.50;17.70;;;;;;;16.92;45.26;101027.70;109953;1238;72544;-77
2023/03/23 09:45:10;;;;;;;24.20;18.00;;;;;;;17.27;45.84;101021.36;109935;1238;60498;-74
2023/03/23 09:48:26;;;;;;;23.40;17.20;;;;;;;17.49;45.57;101015.22;110041;1238;62515;-77
2023/03/23 09:51:15;;;;;;;30.80;18.00;;;;;;;17.70;44.79;101014.42;109937;1239;60220;-76
2023/03/23 09:53:50;;;;;;;25.10;17.10;;;;;;;17.87;44.49;101009.98;109999;1238;58303;-75
2023/03/23 09:56:18;;;;;;;22.00;16.50;;;;;;;17.95;42.62;101004.23;109942;1238;65153;-80
2023/03/23 09:58:55;;;;;;;20.40;15.70;;;;;;;17.92;41.45;100995.21;109814;1238;60940;-78
2023/03/23 10:01:32;;;;;;;17.70;12.90;;;;;;;18.02;39.42;100994.52;110050;1238;59979;-80
2023/03/23 10:04:37;;;;;;;21.70;13.40;;;;;;;18.11;39.35;100997.04;109911;1241;72664;-77
2023/03/23 10:07:19;;;;;;;17.50;13.80;;;;;;;18.01;39.15;100995.05;109878;1241;61942;-76
2023/03/23 10:09:55;;;;;;;24.00;14.10;;;;;;;18.18;38.38;100994.14;110009;1241;57785;-78
2023/03/23 10:12:44;;;;;;;15.70;12.30;;;;;;;18.24;37.73;100990.39;109937;1238;64047;-79
2023/03/23 10:15:23;;;;;;;16.90;12.10;;;;;;;18.21;36.87;100993.52;109977;1238;72161;-76
2023/03/23 10:18:19;;;;;;;17.00;11.40;;;;;;;18.14;37.03;100995.81;109927;1241;59961;-78
2023/03/23 10:20:56;;;;;;;19.20;11.60;;;;;;;18.27;37.13;100992.34;109762;1238;73780;-78
2023/03/23 10:24:08;;;;;;;17.90;11.20;;;;;;;18.65;36.64;100990.86;109839;1239;58318;-75
2023/03/23 10:26:51;;;;;;;17.00;11.20;;;;;;;18.77;36.43;100987.14;109597;1238;57791;-79
2023/03/23 10:29:38;;;;;;;19.00;13.00;;;;;;;18.75;36.39;100983.81;109871;1238;63242;-79
2023/03/23 10:32:15;;;;;;;19.70;12.30;;;;;;;18.73;36.32;100979.95;109650;1238;63216;-80
2023/03/23 10:35:04;;;;;;;14.50;10.50;;;;;;;18.63;36.24;100983.49;109783;1241;59784;-75
2023/03/23 10:37:38;;;;;;;17.20;10.60;;;;;;;18.91;35.59;100978.88;109747;1239;62486;-77
2023/03/23 10:40:15;;;;;;;14.30;10.80;;;;;;;18.95;34.78;100974.14;109616;1242;58344;-78
2023/03/23 10:42:43;;;;;;;12.90;10.00;;;;;;;18.94;34.77;100968.48;109805;1241;58285;-79
2023/03/23 10:45:32;;;;;;;12.90;9.40;;;;;;;19.11;34.76;100972.17;109869;1238;74568;-78
2023/03/23 10:48:38;;;;;;;20.40;11.80;;;;;;;20.17;33.94;100970.38;109868;1238;71784;-78
2023/03/23 10:51:12;;;;;;;17.00;11.00;;;;;;;20.68;33.08;100967.63;109887;1242;60656;-76
2023/03/23 10:53:49;;;;;;;15.10;11.30;;;;;;;20.58;33.11;100962.49;109877;1242;62514;-77
2023/03/23 10:56:34;;;;;;;15.80;10.10;;;;;;;20.36;32.42;100959.84;109897;1238;60557;-77
2023/03/23 10:59:20;;;;;;;14.90;10.70;;;;;;;20.31;32.44;100954.42;109708;1241;60918;-78
2023/03/23 11:01:53;;;;;;;13.10;9.50;;;;;;;20.57;32.75;100957.21;109881;1238;74870;-77
2023/03/23 11:04:23;;;;;;;12.20;9.00;;;;;;;20.93;31.15;100950.81;109669;1238;72812;-79
2023/03/23 11:07:00;;;;;;;11.70;9.20;;;;;;;21.00;30.87;100949.71;109777;1238;59558;-76
2023/03/23 11:09:52;;;;;;;14.00;9.10;;;;;;;21.50;30.53;100948.64;109737;1242;71197;-77
2023/03/23 11:12:20;;;;;;;13.90;10.10;;;;;;;21.59;30.03;100943.69;109688;1242;60470;-77
2023/03/23 11:14:49;;;;;;;12.70;9.00;;;;;;;21.90;30.29;100939.27;109761;1238;57736;-77
2023/03/23 11:17:24;;;;;;;12.90;9.90;;;;;;;22.64;29.55;100938.67;109605;1243;63759;-76
2023/03/23 11:19:54;;;;;;;13.90;9.40;;;;;;;22.63;29.98;100930.55;109802;1238;72233;-76
2023/03/23 11:22:28;;;;;;;12.40;10.00;;;;;;;22.85;29.49;100930.11;109730;1238;60982;-75
2023/03/23 11:25:03;;;;;;;10.50;8.90;;;;;;;23.18;28.14;100931.56;109796;1242;63357;-77
2023/03/23 11:27:33;;;;;;;14.30;10.10;;;;;;;23.39;27.98;100933.95;109574;1244;57789;-77
2023/03/23 11:30:29;;;;;;;9.90;8.40;;;;;;;23.61;28.72;100931.73;109672;1242;57772;-75
2023/03/23 11:33:02;;;;;;;12.30;9.00;;;;;;;23.87;28.74;100923.20;109576;1241;64405;-76
2023/03/23 11:35:30;;;;;;;10.70;9.10;;;;;;;23.18;26.80;100919.33;109674;1238;71461;-77
2023/03/23 11:37:59;;;;;;;12.10;9.00;;;;;;;22.95;27.30;100915.02;109514;1238;70299;-77
2023/03/23 11:40:31;;;;;;;12.80;8.70;;;;;;;23.66;27.36;100909.33;109541;1243;63784;-77
2023/03/23 11:43:24;;;;;;;10.60;7.70;;;;;;;24.56;26.89;100904.42;109551;1241;58344;-76
2023/03/23 11:46:19;;;;;;;15.20;8.90;;;;;;;24.62;24.64;100907.24;109554;1245;57799;-77
2023/03/23 11:48:58;;;;;;;11.60;8.30;;;;;;;23.29;25.66;100904.77;109863;1241;62993;-78
2023/03/23 11:51:50;;;;;;;10.80;7.50;;;;;;;23.08;26.01;100898.87;109621;1242;61526;-78
2023/03/23 11:54:41;;;;;;;10.70;7.90;;;;;;;23.30;26.00;100890.54;109870;1238;69997;-78
2023/03/23 11:57:12;;;;;;;9.20;7.80;;;;;;;23.74;25.48;100886.45;109965;1242;74133;-78